createdAt,value
2017-07-18T00:00:13.843Z,65.66
2017-07-18T00:00:39.408Z,65.47
2017-07-18T00:01:04.965Z,65.66
2017-07-18T00:01:30.581Z,65.27
2017-07-18T00:01:56.191Z,65.37
2017-07-18T00:02:21.755Z,65.56
2017-07-18T00:02:47.320Z,65.66
2017-07-18T00:03:12.882Z,65.66
2017-07-18T00:03:38.442Z,65.66
2017-07-18T00:04:04.055Z,65.85
2017-07-18T00:04:29.620Z,65.47
2017-07-18T00:04:55.192Z,65.66
2017-07-18T00:05:20.787Z,65.95
2017-07-18T00:05:46.366Z,65.56
2017-07-18T00:06:11.947Z,65.66
2017-07-18T00:06:37.514Z,65.85
2017-07-18T00:07:03.147Z,65.85
2017-07-18T00:07:28.713Z,65.56
2017-07-18T00:07:54.272Z,65.56
2017-07-18T00:08:19.876Z,65.56
2017-07-18T00:08:45.432Z,65.85
2017-07-18T00:09:10.991Z,65.56
2017-07-18T00:09:36.570Z,65.66
2017-07-18T00:10:02.131Z,65.66
2017-07-18T00:10:27.727Z,65.85
2017-07-18T00:10:53.305Z,65.56
2017-07-18T00:11:18.894Z,65.56
2017-07-18T00:11:44.463Z,65.66
2017-07-18T00:12:10.069Z,65.56
2017-07-18T00:12:35.622Z,65.66
2017-07-18T00:13:01.192Z,65.56
2017-07-18T00:13:26.818Z,65.75
2017-07-18T00:13:52.388Z,65.75
2017-07-18T00:14:17.954Z,65.85
2017-07-18T00:14:43.536Z,65.95
2017-07-18T00:15:09.132Z,65.56
2017-07-18T00:15:34.683Z,65.56
2017-07-18T00:16:00.302Z,65.85
2017-07-18T00:16:25.911Z,65.56
2017-07-18T00:16:51.492Z,65.95
2017-07-18T00:17:17.043Z,65.75
2017-07-18T00:17:42.595Z,65.95
2017-07-18T00:18:08.187Z,65.95
2017-07-18T00:18:33.761Z,65.95
2017-07-18T00:18:59.301Z,65.75
2017-07-18T00:19:24.898Z,65.56
2017-07-18T00:19:50.497Z,65.75
2017-07-18T00:20:16.083Z,65.95
2017-07-18T00:20:41.630Z,65.56
2017-07-18T00:21:07.196Z,65.75
2017-07-18T00:21:32.760Z,65.75
2017-07-18T00:21:58.334Z,65.75
2017-07-18T00:22:23.921Z,65.27
2017-07-18T00:22:49.461Z,65.17
2017-07-18T00:23:15.030Z,65.27
2017-07-18T00:23:40.602Z,65.95
2017-07-18T00:24:06.174Z,65.95
2017-07-18T00:24:31.748Z,65.95
2017-07-18T00:24:57.306Z,65.85
2017-07-18T00:25:22.899Z,65.27
2017-07-18T00:25:48.462Z,65.27
2017-07-18T00:26:14.068Z,65.37
2017-07-18T00:26:39.654Z,65.66
2017-07-18T00:27:05.205Z,65.56
2017-07-18T00:27:30.783Z,65.27
2017-07-18T00:27:56.366Z,65.27
2017-07-18T00:28:21.923Z,65.37
2017-07-18T00:28:47.515Z,65.17
2017-07-18T00:29:13.159Z,65.27
2017-07-18T00:29:38.732Z,65.47
2017-07-18T00:30:04.328Z,65.66
2017-07-18T00:30:29.925Z,65.47
2017-07-18T00:30:55.511Z,65.37
2017-07-18T00:31:21.923Z,65.37
2017-07-18T00:31:47.493Z,65.37
2017-07-18T00:32:13.157Z,65.47
2017-07-18T00:32:38.718Z,65.37
2017-07-18T00:33:05.275Z,65.17
2017-07-18T00:33:30.833Z,65.47
2017-07-18T00:33:56.391Z,65.47
2017-07-18T00:34:21.983Z,65.47
2017-07-18T00:34:47.582Z,65.47
2017-07-18T00:35:13.140Z,65.56
2017-07-18T00:35:38.703Z,65.27
2017-07-18T00:36:04.253Z,65.66
2017-07-18T00:36:29.832Z,65.47
2017-07-18T00:36:55.398Z,65.56
2017-07-18T00:37:20.970Z,65.37
2017-07-18T00:37:46.558Z,65.47
2017-07-18T00:38:12.127Z,65.66
2017-07-18T00:38:37.810Z,65.37
2017-07-18T00:39:03.380Z,65.56
2017-07-18T00:39:28.962Z,65.47
2017-07-18T00:39:54.534Z,65.47
2017-07-18T00:40:20.106Z,65.47
2017-07-18T00:40:45.657Z,65.66
2017-07-18T00:41:11.293Z,65.47
2017-07-18T00:41:36.845Z,65.66
2017-07-18T00:42:02.417Z,65.47
2017-07-18T00:42:28.012Z,65.47
2017-07-18T00:42:53.585Z,65.37
2017-07-18T00:43:19.132Z,65.47
2017-07-18T00:43:44.724Z,65.37
2017-07-18T00:44:10.299Z,65.47
2017-07-18T00:44:35.887Z,65.47
2017-07-18T00:45:04.188Z,65.37
2017-07-18T00:45:29.779Z,65.37
2017-07-18T00:45:55.356Z,65.37
2017-07-18T00:46:20.944Z,65.08
2017-07-18T00:46:46.581Z,65.27
2017-07-18T00:47:12.141Z,65.08
2017-07-18T00:47:37.701Z,65.37
2017-07-18T00:48:03.245Z,65.47
2017-07-18T00:48:28.804Z,65.27
2017-07-18T00:48:54.372Z,65.27
2017-07-18T00:49:19.923Z,65.27
2017-07-18T00:49:45.492Z,65.37
2017-07-18T00:50:11.100Z,65.56
2017-07-18T00:50:36.624Z,65.17
2017-07-18T00:51:02.210Z,65.37
2017-07-18T00:51:27.774Z,65.56
2017-07-18T00:51:53.448Z,65.27
2017-07-18T00:52:19.004Z,65.08
2017-07-18T00:52:44.561Z,65.37
2017-07-18T00:53:10.127Z,65.08
2017-07-18T00:53:35.703Z,65.37
2017-07-18T00:54:01.424Z,65.27
2017-07-18T00:54:27.031Z,65.27
2017-07-18T00:54:52.590Z,65.27
2017-07-18T00:55:18.163Z,65.47
2017-07-18T00:55:43.749Z,65.47
2017-07-18T00:56:09.314Z,65.27
2017-07-18T00:56:34.904Z,65.17
2017-07-18T00:57:00.453Z,65.27
2017-07-18T00:57:26.073Z,65.37
2017-07-18T00:57:51.642Z,65.17
2017-07-18T00:58:17.226Z,65.66
2017-07-18T00:58:42.783Z,65.08
2017-07-18T00:59:08.343Z,65.27
2017-07-18T00:59:33.935Z,65.17
2017-07-18T00:59:59.515Z,65.56
2017-07-18T01:00:25.061Z,65.17
2017-07-18T01:00:50.633Z,65.47
2017-07-18T01:01:16.217Z,65.17
2017-07-18T01:01:41.774Z,65.47
2017-07-18T01:02:07.355Z,65.17
2017-07-18T01:02:32.934Z,65.27
2017-07-18T01:02:58.485Z,65.47
2017-07-18T01:03:24.055Z,65.27
2017-07-18T01:03:49.673Z,65.17
2017-07-18T01:04:15.251Z,65.17
2017-07-18T01:04:40.813Z,65.17
2017-07-18T01:05:06.425Z,65.17
2017-07-18T01:05:31.973Z,65.27
2017-07-18T01:05:57.533Z,65.17
2017-07-18T01:06:23.112Z,65.17
2017-07-18T01:06:48.682Z,65.17
2017-07-18T01:07:14.234Z,65.37
2017-07-18T01:07:39.813Z,65.17
2017-07-18T01:08:05.383Z,65.27
2017-07-18T01:08:30.972Z,65.37
2017-07-18T01:08:56.534Z,64.98
2017-07-18T01:09:22.125Z,65.17
2017-07-18T01:09:47.672Z,64.98
2017-07-18T01:10:13.232Z,65.08
2017-07-18T01:10:38.806Z,65.37
2017-07-18T01:11:04.373Z,65.37
2017-07-18T01:11:29.944Z,65.17
2017-07-18T01:11:55.503Z,64.98
2017-07-18T01:12:21.091Z,65.08
2017-07-18T01:12:46.754Z,64.98
2017-07-18T01:13:12.316Z,65.17
2017-07-18T01:13:37.902Z,65.08
2017-07-18T01:14:03.532Z,65.17
2017-07-18T01:14:29.100Z,65.17
2017-07-18T01:14:54.687Z,65.08
2017-07-18T01:15:20.243Z,64.98
2017-07-18T01:15:45.802Z,64.98
2017-07-18T01:16:11.382Z,64.89
2017-07-18T01:16:36.943Z,64.89
2017-07-18T01:17:02.514Z,64.98
2017-07-18T01:17:28.097Z,64.98
2017-07-18T01:17:53.704Z,64.98
2017-07-18T01:18:19.351Z,65.08
2017-07-18T01:18:44.921Z,65.17
2017-07-18T01:19:10.475Z,64.98
2017-07-18T01:19:36.033Z,65.27
2017-07-18T01:20:01.605Z,64.98
2017-07-18T01:20:27.169Z,64.89
2017-07-18T01:20:52.726Z,64.89
2017-07-18T01:21:18.282Z,64.89
2017-07-18T01:21:43.887Z,65.17
2017-07-18T01:22:09.561Z,64.89
2017-07-18T01:22:35.112Z,64.89
2017-07-18T01:23:00.712Z,64.89
2017-07-18T01:23:26.306Z,64.89
2017-07-18T01:23:51.868Z,64.98
2017-07-18T01:24:17.428Z,64.89
2017-07-18T01:24:42.998Z,65.17
2017-07-18T01:25:08.543Z,65.17
2017-07-18T01:25:34.090Z,65.17
2017-07-18T01:25:59.672Z,64.98
2017-07-18T01:26:25.263Z,64.98
2017-07-18T01:26:50.825Z,65.08
2017-07-18T01:27:16.393Z,64.98
2017-07-18T01:27:41.961Z,65.27
2017-07-18T01:28:07.506Z,64.89
2017-07-18T01:28:33.117Z,64.89
2017-07-18T01:28:58.662Z,65.17
2017-07-18T01:29:24.240Z,65.27
2017-07-18T01:29:49.802Z,65.08
2017-07-18T01:30:15.400Z,64.89
2017-07-18T01:30:40.966Z,65.17
2017-07-18T01:31:06.516Z,65.17
2017-07-18T01:31:32.082Z,64.98
2017-07-18T01:31:57.656Z,65.27
2017-07-18T01:32:23.283Z,65.27
2017-07-18T01:32:48.921Z,64.89
2017-07-18T01:33:14.491Z,65.37
2017-07-18T01:33:40.058Z,64.98
2017-07-18T01:34:05.619Z,64.98
2017-07-18T01:34:31.177Z,64.89
2017-07-18T01:34:56.752Z,64.98
2017-07-18T01:35:22.371Z,64.69
2017-07-18T01:35:47.918Z,64.98
2017-07-18T01:36:13.486Z,65.27
2017-07-18T01:36:39.052Z,64.98
2017-07-18T01:37:04.624Z,64.98
2017-07-18T01:37:30.180Z,65.08
2017-07-18T01:37:55.798Z,64.89
2017-07-18T01:38:21.402Z,64.89
2017-07-18T01:38:46.959Z,64.89
2017-07-18T01:39:12.605Z,65.08
2017-07-18T01:39:38.158Z,64.89
2017-07-18T01:40:03.710Z,64.79
2017-07-18T01:40:29.271Z,65.08
2017-07-18T01:40:54.835Z,64.98
2017-07-18T01:41:20.400Z,64.79
2017-07-18T01:41:46.070Z,64.89
2017-07-18T01:42:11.649Z,64.98
2017-07-18T01:42:37.193Z,64.98
2017-07-18T01:43:02.744Z,64.79
2017-07-18T01:43:28.328Z,64.69
2017-07-18T01:43:53.884Z,64.98
2017-07-18T01:44:19.464Z,64.59
2017-07-18T01:44:45.018Z,64.98
2017-07-18T01:45:10.578Z,64.89
2017-07-18T01:45:36.151Z,64.89
2017-07-18T01:46:01.714Z,64.89
2017-07-18T01:46:27.284Z,64.59
2017-07-18T01:46:52.980Z,64.98
2017-07-18T01:47:18.544Z,64.59
2017-07-18T01:47:44.119Z,64.59
2017-07-18T01:48:09.695Z,64.59
2017-07-18T01:48:35.266Z,64.79
2017-07-18T01:49:00.834Z,64.59
2017-07-18T01:49:26.419Z,64.59
2017-07-18T01:49:52.087Z,64.98
2017-07-18T01:50:17.650Z,64.59
2017-07-18T01:50:43.215Z,64.59
2017-07-18T01:51:08.768Z,64.59
2017-07-18T01:51:34.332Z,64.59
2017-07-18T01:51:59.892Z,64.59
2017-07-18T01:52:25.517Z,64.59
2017-07-18T01:52:51.086Z,64.59
2017-07-18T01:53:16.634Z,64.59
2017-07-18T01:53:42.190Z,64.59
2017-07-18T01:54:07.753Z,64.59
2017-07-18T01:54:33.372Z,64.89
2017-07-18T01:54:58.955Z,64.89
2017-07-18T01:55:24.510Z,64.98
2017-07-18T01:55:50.050Z,64.98
2017-07-18T01:56:15.648Z,64.59
2017-07-18T01:56:41.235Z,64.98
2017-07-18T01:57:06.800Z,64.59
2017-07-18T01:57:32.352Z,64.59
2017-07-18T01:57:57.897Z,64.59
2017-07-18T01:58:23.460Z,64.69
2017-07-18T01:58:49.030Z,64.79
2017-07-18T01:59:14.602Z,64.89
2017-07-18T01:59:40.189Z,64.98
2017-07-18T02:00:05.874Z,64.79
2017-07-18T02:00:31.501Z,64.79
2017-07-18T02:00:57.054Z,64.59
2017-07-18T02:01:22.634Z,64.98
2017-07-18T02:01:48.220Z,64.79
2017-07-18T02:02:13.773Z,64.79
2017-07-18T02:02:39.359Z,64.5
2017-07-18T02:03:04.983Z,64.79
2017-07-18T02:03:30.567Z,64.79
2017-07-18T02:03:56.122Z,64.69
2017-07-18T02:04:21.717Z,65.08
2017-07-18T02:04:47.272Z,64.98
2017-07-18T02:05:12.820Z,65.08
2017-07-18T02:05:38.434Z,64.98
2017-07-18T02:06:04.000Z,65.08
2017-07-18T02:06:29.537Z,64.89
2017-07-18T02:06:55.132Z,65.08
2017-07-18T02:07:20.711Z,64.79
2017-07-18T02:07:46.295Z,64.79
2017-07-18T02:08:11.853Z,64.69
2017-07-18T02:08:37.408Z,64.89
2017-07-18T02:09:02.963Z,65.08
2017-07-18T02:09:28.554Z,64.98
2017-07-18T02:10:22.388Z,64.89
2017-07-18T02:10:47.939Z,64.89
2017-07-18T02:11:13.479Z,64.89
2017-07-18T02:11:39.044Z,64.89
2017-07-18T02:12:04.615Z,64.89
2017-07-18T02:12:30.194Z,65.08
2017-07-18T02:12:55.823Z,65.08
2017-07-18T02:13:21.335Z,65.27
2017-07-18T02:13:46.903Z,64.89
2017-07-18T02:14:12.450Z,64.89
2017-07-18T02:14:38.119Z,65.08
2017-07-18T02:15:03.864Z,65.08
2017-07-18T02:15:29.423Z,64.98
2017-07-18T02:15:54.985Z,64.98
2017-07-18T02:16:20.590Z,65.08
2017-07-18T02:16:46.230Z,65.17
2017-07-18T02:17:11.792Z,64.98
2017-07-18T02:17:37.357Z,64.98
2017-07-18T02:18:02.911Z,64.98
2017-07-18T02:18:28.474Z,64.98
2017-07-18T02:18:54.045Z,65.08
2017-07-18T02:19:19.622Z,65.08
2017-07-18T02:19:45.188Z,64.89
2017-07-18T02:20:10.757Z,64.89
2017-07-18T02:20:36.298Z,65.08
2017-07-18T02:21:01.881Z,65.08
2017-07-18T02:21:27.493Z,64.98
2017-07-18T02:21:53.045Z,65.17
2017-07-18T02:22:18.592Z,64.98
2017-07-18T02:22:44.177Z,64.11
2017-07-18T02:23:09.720Z,64.89
2017-07-18T02:23:35.290Z,64.98
2017-07-18T02:24:00.882Z,64.79
2017-07-18T02:24:26.560Z,65.08
2017-07-18T02:24:52.130Z,64.79
2017-07-18T02:25:17.689Z,65.08
2017-07-18T02:25:43.241Z,64.98
2017-07-18T02:26:08.802Z,64.89
2017-07-18T02:26:34.403Z,64.89
2017-07-18T02:27:00.075Z,64.98
2017-07-18T02:27:25.644Z,65.08
2017-07-18T02:27:51.253Z,64.98
2017-07-18T02:28:16.797Z,64.5
2017-07-18T02:28:42.377Z,65.08
2017-07-18T02:29:07.920Z,65.08
2017-07-18T02:30:11.971Z,65.17
2017-07-18T02:30:37.565Z,65.08
2017-07-18T02:31:03.110Z,65.08
2017-07-18T02:31:28.671Z,64.89
2017-07-18T02:31:54.254Z,64.31
2017-07-18T02:32:19.826Z,64.11
2017-07-18T02:32:45.418Z,64.31
2017-07-18T02:33:10.988Z,65.08
2017-07-18T02:33:36.551Z,64.31
2017-07-18T02:34:02.131Z,64.31
2017-07-18T02:34:27.691Z,64.21
2017-07-18T02:34:53.242Z,64.4
2017-07-18T02:35:18.808Z,64.4
2017-07-18T02:35:44.391Z,64.31
2017-07-18T02:36:09.983Z,64.4
2017-07-18T02:36:35.553Z,64.31
2017-07-18T02:37:01.108Z,64.4
2017-07-18T02:37:26.725Z,64.4
2017-07-18T02:37:52.296Z,64.21
2017-07-18T02:38:17.876Z,64.21
2017-07-18T02:38:43.437Z,64.21
2017-07-18T02:39:09.020Z,64.21
2017-07-18T02:39:34.559Z,64.31
2017-07-18T02:40:00.125Z,64.01
2017-07-18T02:40:25.682Z,64.21
2017-07-18T02:40:51.242Z,64.4
2017-07-18T02:41:16.851Z,64.4
2017-07-18T02:41:42.410Z,64.31
2017-07-18T02:42:07.960Z,64.31
2017-07-18T02:42:33.518Z,64.31
2017-07-18T02:42:59.084Z,64.31
2017-07-18T02:43:24.642Z,64.31
2017-07-18T02:43:50.213Z,64.01
2017-07-18T02:44:15.773Z,64.31
2017-07-18T02:44:41.330Z,64.31
2017-07-18T02:45:06.886Z,64.59
2017-07-18T02:45:32.449Z,64.21
2017-07-18T02:45:57.999Z,64.31
2017-07-18T02:46:23.571Z,64.4
2017-07-18T02:46:49.123Z,64.01
2017-07-18T02:47:14.669Z,64.4
2017-07-18T02:47:40.262Z,64.21
2017-07-18T02:48:05.815Z,64.31
2017-07-18T02:48:31.482Z,64.31
2017-07-18T02:49:25.309Z,64.01
2017-07-18T02:49:50.876Z,64.4
2017-07-18T02:50:16.509Z,64.31
2017-07-18T02:50:42.183Z,64.4
2017-07-18T02:51:07.734Z,64.4
2017-07-18T02:51:33.294Z,64.31
2017-07-18T02:51:58.911Z,64.31
2017-07-18T02:52:24.503Z,64.59
2017-07-18T02:52:50.066Z,64.21
2017-07-18T02:53:15.609Z,64.31
2017-07-18T02:53:41.170Z,64.31
2017-07-18T02:54:06.758Z,64.21
2017-07-18T02:54:32.323Z,64.21
2017-07-18T02:54:57.887Z,64.4
2017-07-18T02:55:23.477Z,64.01
2017-07-18T02:55:49.048Z,64.31
2017-07-18T02:56:14.614Z,64.21
2017-07-18T02:56:40.179Z,64.21
2017-07-18T02:57:05.743Z,64.21
2017-07-18T02:57:31.303Z,64.31
2017-07-18T02:57:56.926Z,64.31
2017-07-18T02:58:22.530Z,64.11
2017-07-18T02:58:48.128Z,64.31
2017-07-18T02:59:13.717Z,64.4
2017-07-18T02:59:39.275Z,64.21
2017-07-18T03:00:04.832Z,63.92
2017-07-18T03:00:30.381Z,64.21
2017-07-18T03:00:55.990Z,64.31
2017-07-18T03:01:21.533Z,64.21
2017-07-18T03:01:47.110Z,64.11
2017-07-18T03:02:12.702Z,64.4
2017-07-18T03:02:38.289Z,64.31
2017-07-18T03:03:03.843Z,64.4
2017-07-18T03:03:29.423Z,64.31
2017-07-18T03:03:54.969Z,64.31
2017-07-18T03:04:20.529Z,63.92
2017-07-18T03:04:46.140Z,64.21
2017-07-18T03:05:11.721Z,64.31
2017-07-18T03:05:37.280Z,64.11
2017-07-18T03:06:02.888Z,63.92
2017-07-18T03:06:28.448Z,63.92
2017-07-18T03:06:54.011Z,64.31
2017-07-18T03:07:19.671Z,64.11
2017-07-18T03:07:45.242Z,64.21
2017-07-18T03:08:10.793Z,64.31
2017-07-18T03:08:36.402Z,64.21
2017-07-18T03:09:02.009Z,64.31
2017-07-18T03:09:27.593Z,64.31
2017-07-18T03:09:53.124Z,64.31
2017-07-18T03:10:18.707Z,64.31
2017-07-18T03:10:44.257Z,63.92
2017-07-18T03:11:09.842Z,64.21
2017-07-18T03:11:35.530Z,64.31
2017-07-18T03:12:01.096Z,63.92
2017-07-18T03:12:26.673Z,64.21
2017-07-18T03:12:52.216Z,64.21
2017-07-18T03:13:17.771Z,64.11
2017-07-18T03:13:43.331Z,64.11
2017-07-18T03:14:09.000Z,64.21
2017-07-18T03:14:34.573Z,64.31
2017-07-18T03:15:00.149Z,64.01
2017-07-18T03:15:25.735Z,64.21
2017-07-18T03:15:51.332Z,64.21
2017-07-18T03:16:16.886Z,64.21
2017-07-18T03:16:42.431Z,64.11
2017-07-18T03:17:07.991Z,64.11
2017-07-18T03:17:33.535Z,64.11
2017-07-18T03:17:59.141Z,64.11
2017-07-18T03:18:24.706Z,64.11
2017-07-18T03:18:50.264Z,64.21
2017-07-18T03:19:15.809Z,64.08
2017-07-18T03:19:41.370Z,64.31
2017-07-18T03:20:06.923Z,64.11
2017-07-18T03:20:32.594Z,64.21
2017-07-18T03:20:58.164Z,64.31
2017-07-18T03:21:23.728Z,64.21
2017-07-18T03:21:49.313Z,64.21
2017-07-18T03:22:14.993Z,64.4
2017-07-18T03:22:40.534Z,64.11
2017-07-18T03:23:06.107Z,64.31
2017-07-18T03:23:31.681Z,64.4
2017-07-18T03:23:57.240Z,64.11
2017-07-18T03:24:22.819Z,64.4
2017-07-18T03:24:48.374Z,64.4
2017-07-18T03:25:13.977Z,64.11
2017-07-18T03:25:39.551Z,64.21
2017-07-18T03:26:05.135Z,64.21
2017-07-18T03:26:30.693Z,64.18
2017-07-18T03:26:56.251Z,64.11
2017-07-18T03:28:10.592Z,64.11
2017-07-18T03:28:36.223Z,64.4
2017-07-18T03:29:01.804Z,64.11
2017-07-18T03:29:27.320Z,64.11
2017-07-18T03:29:52.891Z,64.4
2017-07-18T03:30:18.614Z,64.28
2017-07-18T03:30:44.184Z,64.08
2017-07-18T03:31:09.728Z,64.4
2017-07-18T03:31:35.292Z,64.18
2017-07-18T03:32:00.861Z,64.11
2017-07-18T03:32:26.415Z,64.21
2017-07-18T03:32:51.999Z,64.08
2017-07-18T03:33:17.531Z,64.31
2017-07-18T03:33:43.103Z,64.01
2017-07-18T03:34:08.657Z,64.37
2017-07-18T03:34:34.374Z,64.4
2017-07-18T03:34:59.943Z,64.11
2017-07-18T03:35:25.525Z,64.4
2017-07-18T03:35:51.151Z,64.08
2017-07-18T03:36:16.732Z,64.08
2017-07-18T03:36:42.278Z,64.11
2017-07-18T03:37:07.839Z,64.11
2017-07-18T03:37:33.428Z,64.4
2017-07-18T03:37:58.972Z,64.31
2017-07-18T03:38:24.572Z,64.37
2017-07-18T03:38:50.165Z,64.08
2017-07-18T03:39:15.722Z,64.31
2017-07-18T03:39:41.279Z,64.4
2017-07-18T03:40:06.823Z,64.21
2017-07-18T03:40:32.386Z,64.31
2017-07-18T03:40:58.001Z,64.11
2017-07-18T03:41:23.556Z,64.21
2017-07-18T03:41:49.113Z,64.31
2017-07-18T03:42:14.703Z,64.08
2017-07-18T03:42:40.327Z,64.11
2017-07-18T03:43:05.880Z,64.31
2017-07-18T03:43:31.434Z,64.11
2017-07-18T03:43:57.004Z,64.21
2017-07-18T03:44:22.553Z,64.21
2017-07-18T03:44:48.103Z,64.4
2017-07-18T03:45:13.810Z,64.4
2017-07-18T03:45:39.360Z,64.21
2017-07-18T03:46:04.926Z,64.4
2017-07-18T03:46:30.478Z,64.21
2017-07-18T03:46:56.041Z,64.11
2017-07-18T03:47:21.595Z,64.31
2017-07-18T03:47:47.164Z,64.31
2017-07-18T03:48:12.734Z,64.11
2017-07-18T03:48:38.279Z,64.28
2017-07-18T03:49:03.849Z,64.59
2017-07-18T03:49:29.414Z,64.31
2017-07-18T03:49:54.992Z,64.01
2017-07-18T03:50:20.649Z,64.4
2017-07-18T03:50:46.203Z,64.5
2017-07-18T03:51:11.810Z,64.31
2017-07-18T03:51:37.488Z,64.01
2017-07-18T03:52:03.040Z,64.18
2017-07-18T03:52:28.595Z,64.4
2017-07-18T03:52:54.165Z,64.4
2017-07-18T03:53:19.717Z,64.47
2017-07-18T03:53:45.340Z,64.28
2017-07-18T03:54:10.966Z,64.5
2017-07-18T03:54:36.520Z,64.5
2017-07-18T03:55:02.072Z,64.5
2017-07-18T03:55:27.654Z,64.37
2017-07-18T03:55:53.210Z,64.47
2017-07-18T03:56:18.783Z,64.47
2017-07-18T03:56:44.365Z,64.21
2017-07-18T03:57:09.927Z,64.08
2017-07-18T03:57:35.480Z,64.11
2017-07-18T03:58:01.162Z,64.21
2017-07-18T03:58:26.710Z,64.28
2017-07-18T03:58:52.259Z,64.4
2017-07-18T03:59:17.814Z,64.18
2017-07-18T03:59:43.387Z,64.5
2017-07-18T04:00:08.979Z,64.37
2017-07-18T04:00:34.539Z,64.31
2017-07-18T04:01:00.115Z,64.28
2017-07-18T04:01:25.660Z,64.5
2017-07-18T04:01:51.233Z,64.5
2017-07-18T04:02:16.818Z,64.31
2017-07-18T04:02:42.346Z,64.21
2017-07-18T04:03:07.926Z,64.18
2017-07-18T04:03:33.503Z,64.59
2017-07-18T04:03:59.063Z,64.21
2017-07-18T04:04:24.653Z,64.31
2017-07-18T04:04:50.393Z,64.31
2017-07-18T04:05:15.948Z,64.5
2017-07-18T04:05:41.529Z,64.5
2017-07-18T04:06:07.104Z,64.08
2017-07-18T04:06:32.657Z,64.28
2017-07-18T04:06:58.220Z,64.5
2017-07-18T04:07:23.778Z,64.28
2017-07-18T04:07:49.345Z,64.5
2017-07-18T04:08:14.904Z,64.31
2017-07-18T04:08:40.455Z,64.5
2017-07-18T04:09:06.008Z,64.18
2017-07-18T04:09:31.595Z,64.28
2017-07-18T04:09:57.346Z,64.37
2017-07-18T04:10:22.910Z,64.47
2017-07-18T04:10:48.468Z,64.56
2017-07-18T04:11:14.019Z,64.31
2017-07-18T04:11:39.568Z,64.31
2017-07-18T04:12:05.145Z,64.5
2017-07-18T04:12:30.741Z,64.28
2017-07-18T04:12:56.310Z,64.47
2017-07-18T04:13:21.870Z,64.5
2017-07-18T04:13:47.442Z,64.4
2017-07-18T04:14:13.070Z,64.47
2017-07-18T04:14:38.622Z,64.31
2017-07-18T04:15:04.205Z,64.31
2017-07-18T04:15:29.775Z,64.4
2017-07-18T04:15:55.329Z,64.47
2017-07-18T04:16:20.869Z,64.08
2017-07-18T04:16:46.429Z,64.28
2017-07-18T04:17:11.984Z,64.18
2017-07-18T04:17:37.600Z,64.18
2017-07-18T04:18:03.184Z,63.89
2017-07-18T04:18:28.748Z,64.28
2017-07-18T04:18:54.417Z,64.4
2017-07-18T04:19:20.014Z,64.47
2017-07-18T04:19:45.579Z,64.4
2017-07-18T04:20:11.148Z,64.37
2017-07-18T04:20:36.759Z,64.47
2017-07-18T04:21:02.313Z,64.28
2017-07-18T04:21:27.886Z,64.21
2017-07-18T04:21:53.443Z,64.28
2017-07-18T04:22:19.012Z,64.08
2017-07-18T04:22:44.614Z,64.28
2017-07-18T04:23:10.192Z,64.28
2017-07-18T04:23:35.763Z,64.28
2017-07-18T04:24:01.333Z,64.4
2017-07-18T04:24:26.892Z,64.31
2017-07-18T04:24:52.451Z,64.18
2017-07-18T04:25:18.010Z,63.98
2017-07-18T04:25:43.578Z,64.08
2017-07-18T04:26:09.173Z,64.11
2017-07-18T04:26:34.741Z,63.98
2017-07-18T04:27:00.363Z,64.28
2017-07-18T04:27:25.929Z,64.11
2017-07-18T04:27:51.504Z,64.28
2017-07-18T04:28:17.062Z,64.08
2017-07-18T04:28:42.623Z,64.28
2017-07-18T04:29:08.171Z,64.08
2017-07-18T04:29:33.761Z,63.89
2017-07-18T04:29:59.321Z,63.89
2017-07-18T04:30:24.900Z,63.98
2017-07-18T04:30:50.576Z,63.79
2017-07-18T04:31:16.173Z,64.18
2017-07-18T04:31:41.738Z,64.28
2017-07-18T04:32:07.312Z,64.37
2017-07-18T04:32:32.937Z,64.31
2017-07-18T04:32:58.508Z,64.28
2017-07-18T04:33:24.074Z,64.4
2017-07-18T04:33:49.650Z,64.11
2017-07-18T04:34:15.207Z,64.08
2017-07-18T04:34:40.762Z,63.79
2017-07-18T04:35:06.338Z,63.89
2017-07-18T04:35:31.900Z,63.89
2017-07-18T04:35:57.443Z,64.08
2017-07-18T04:36:23.002Z,63.89
2017-07-18T04:36:48.627Z,64.31
2017-07-18T04:37:14.185Z,63.89
2017-07-18T04:37:39.746Z,63.82
2017-07-18T04:38:05.311Z,64.28
2017-07-18T04:38:30.893Z,64.28
2017-07-18T04:38:56.516Z,64.21
2017-07-18T04:39:22.108Z,63.82
2017-07-18T04:39:47.660Z,63.79
2017-07-18T04:40:13.245Z,63.82
2017-07-18T04:40:38.811Z,64.08
2017-07-18T04:41:04.378Z,64.18
2017-07-18T04:41:30.019Z,64.21
2017-07-18T04:41:55.573Z,64.21
2017-07-18T04:42:21.132Z,64.21
2017-07-18T04:42:46.709Z,64.18
2017-07-18T04:43:12.276Z,64.28
2017-07-18T04:43:37.840Z,64.18
2017-07-18T04:44:03.471Z,63.89
2017-07-18T04:44:29.033Z,63.92
2017-07-18T04:44:54.601Z,63.92
2017-07-18T04:45:20.154Z,64.11
2017-07-18T04:45:45.718Z,63.89
2017-07-18T04:46:11.282Z,64.21
2017-07-18T04:46:36.853Z,63.82
2017-07-18T04:47:02.421Z,63.79
2017-07-18T04:47:27.956Z,64.21
2017-07-18T04:47:53.539Z,63.79
2017-07-18T04:48:19.088Z,63.89
2017-07-18T04:48:44.640Z,63.7
2017-07-18T04:49:10.201Z,64.21
2017-07-18T04:49:35.760Z,63.82
2017-07-18T04:50:01.396Z,63.89
2017-07-18T04:50:26.958Z,64.01
2017-07-18T04:50:52.537Z,63.82
2017-07-18T04:51:18.106Z,64.08
2017-07-18T04:51:43.681Z,64.31
2017-07-18T04:52:09.263Z,64.18
2017-07-18T04:52:34.824Z,63.82
2017-07-18T04:53:00.493Z,64.31
2017-07-18T04:53:26.064Z,64.4
2017-07-18T04:53:51.659Z,64.4
2017-07-18T04:54:17.293Z,64.21
2017-07-18T04:54:42.852Z,64.08
2017-07-18T04:55:08.416Z,64.18
2017-07-18T04:55:33.985Z,64.21
2017-07-18T04:55:59.563Z,64.21
2017-07-18T04:56:25.140Z,64.11
2017-07-18T04:56:50.706Z,64.18
2017-07-18T04:57:16.290Z,64.18
2017-07-18T04:57:41.836Z,63.82
2017-07-18T04:58:07.411Z,64.31
2017-07-18T04:58:33.086Z,64.18
2017-07-18T04:58:58.648Z,63.98
2017-07-18T04:59:24.213Z,64.08
2017-07-18T04:59:49.864Z,63.92
2017-07-18T05:00:15.458Z,64.21
2017-07-18T05:00:41.020Z,64.31
2017-07-18T05:01:06.668Z,64.4
2017-07-18T05:01:32.237Z,64.37
2017-07-18T05:01:57.789Z,64.4
2017-07-18T05:02:23.363Z,64.31
2017-07-18T05:02:48.921Z,64.31
2017-07-18T05:03:14.506Z,64.28
2017-07-18T05:03:40.105Z,64.31
2017-07-18T05:04:05.676Z,64.31
2017-07-18T05:04:31.293Z,64.4
2017-07-18T05:04:56.860Z,64.28
2017-07-18T05:05:22.462Z,64.47
2017-07-18T05:05:48.076Z,64.28
2017-07-18T05:06:13.632Z,64.4
2017-07-18T05:06:39.345Z,64.31
2017-07-18T05:07:04.903Z,64.37
2017-07-18T05:07:30.599Z,63.79
2017-07-18T05:07:56.168Z,64.21
2017-07-18T05:08:21.832Z,63.89
2017-07-18T05:08:47.491Z,64.18
2017-07-18T05:09:13.046Z,64.21
2017-07-18T05:09:38.603Z,64.28
2017-07-18T05:10:04.174Z,64.4
2017-07-18T05:10:29.728Z,64.5
2017-07-18T05:10:55.289Z,64.47
2017-07-18T05:11:20.849Z,64.4
2017-07-18T05:11:46.426Z,64.11
2017-07-18T05:12:12.033Z,64.31
2017-07-18T05:12:37.629Z,64.47
2017-07-18T05:13:03.202Z,64.18
2017-07-18T05:13:28.769Z,64.31
2017-07-18T05:13:54.322Z,64.47
2017-07-18T05:14:19.884Z,64.18
2017-07-18T05:14:45.442Z,64.5
2017-07-18T05:15:11.020Z,64.4
2017-07-18T05:15:36.573Z,64.4
2017-07-18T05:16:02.125Z,64.4
2017-07-18T05:16:27.704Z,64.31
2017-07-18T05:16:53.264Z,64.28
2017-07-18T05:17:18.843Z,64.31
2017-07-18T05:17:44.420Z,64.47
2017-07-18T05:18:09.998Z,64.4
2017-07-18T05:18:35.602Z,64.31
2017-07-18T05:19:01.264Z,64.47
2017-07-18T05:19:26.837Z,64.37
2017-07-18T05:19:52.413Z,64.31
2017-07-18T05:20:17.969Z,64.31
2017-07-18T05:20:43.528Z,64.31
2017-07-18T05:21:09.089Z,64.28
2017-07-18T05:21:34.652Z,64.5
2017-07-18T05:22:00.224Z,64.21
2017-07-18T05:22:25.792Z,64.5
2017-07-18T05:22:51.338Z,64.5
2017-07-18T05:23:16.907Z,64.4
2017-07-18T05:23:42.515Z,64.47
2017-07-18T05:24:08.087Z,64.47
2017-07-18T05:24:33.675Z,64.5
2017-07-18T05:24:59.210Z,64.21
2017-07-18T05:25:24.764Z,64.47
2017-07-18T05:25:50.332Z,64.18
2017-07-18T05:26:15.967Z,64.21
2017-07-18T05:26:41.534Z,64.21
2017-07-18T05:27:07.112Z,64.31
2017-07-18T05:27:32.678Z,64.21
2017-07-18T05:27:58.402Z,64.5
2017-07-18T05:28:23.925Z,64.5
2017-07-18T05:28:49.503Z,64.5
2017-07-18T05:29:15.069Z,64.5
2017-07-18T05:29:40.709Z,64.5
2017-07-18T05:30:06.282Z,64.31
2017-07-18T05:30:31.854Z,64.31
2017-07-18T05:30:57.425Z,64.31
2017-07-18T05:31:23.028Z,64.31
2017-07-18T05:31:48.540Z,64.31
2017-07-18T05:32:14.187Z,64.01
2017-07-18T05:32:39.759Z,64.31
2017-07-18T05:33:05.327Z,64.01